Impacts METAR Board
IDs:

KLAS - Las Vegas/McCarran I, NV, US

Updated at: 0600 UTC 22 Oct 2018
Potential Impact None Slight Moderate High
Time 21/18Z 21/19Z 21/20Z 21/21Z 21/22Z 21/23Z 22/00Z 22/01Z 22/02Z 22/03Z 22/04Z 22/05Z 22/06Z
Temp70 72 74 75 76 77 76 73 72 72 70 69 68
Dewpt56 56 52 51 51 51 51 52 54 52 52 53 54
Altim30.06 30.04 30.02 29.99 29.97 29.96 29.93 29.92 29.93 29.93 29.94 29.94 29.95
VIS10 10 10 10 10 10 10 10 10 10 10 10 10
CIG100 100 -- -- -- -- -- -- -- -- -- 90 90
CoverBKNBKNSCTFEWFEWFEWFEWFEWFEWCLRFEWBKNBKN
FltCatVFRVFRVFRVFRVFRVFRVFRVFRVFRVFRVFRVFRVFR
WX--------------------------
WDir404060603010102001050360230
WSpd8 12 13 9 6 8 7 6 0 4 5 4 3
WGst-- 19 -- -- -- -- -- -- -- -- -- -- --
Raw hourly METARs
KLAS 211756Z 04008KT 10SM FEW065 BKN100 21/13 A3006 RMK AO2 SLP162 60009 T02110133 10211 20172 50004 $
KLAS 211856Z 04012G19KT 10SM SCT060 BKN100 22/13 A3004 RMK AO2 SLP157 T02220133 $
KLAS 211956Z 06013KT 10SM FEW060 SCT100 23/11 A3002 RMK AO2 SLP147 T02330111 $
KLAS 212056Z 06009KT 10SM FEW070 FEW100 24/11 A2999 RMK AO2 SLP139 T02390106 58020 $
KLAS 212156Z 03006KT 10SM FEW080 FEW100 24/11 A2997 RMK AO2 SLP133 T02440106 $
KLAS 212256Z 01008KT 10SM FEW100 FEW250 25/11 A2996 RMK AO2 SLP126 T02500106 $
KLAS 212356Z 01007KT 10SM FEW100 24/11 A2993 RMK AO2 SLP119 T02440106 10250 20211 58019 $
KLAS 220056Z 02006KT 10SM FEW100 23/11 A2992 RMK AO2 SLP116 T02280111 $
KLAS 220156Z 00000KT 10SM FEW100 22/12 A2993 RMK AO2 SLP120 T02220122 $
KLAS 220256Z 01004KT 10SM CLR 22/11 A2993 RMK AO2 SLP118 T02220111 56001 $
KLAS 220356Z 05005KT 10SM FEW090 21/11 A2994 RMK AO2 SLP122 T02110111 $
KLAS 220456Z 36004KT 10SM BKN090 21/12 A2994 RMK AO2 SLP124 T02060117 $
KLAS 220556Z 23003KT 10SM BKN090 20/12 A2995 RMK AO2 SLP126 T02000122 10244 20194 51007 $



Page loaded:  06:08 UTC  |   11:08 PM Pacific  |   12:08 AM Mountain  |   01:08 AM Central  |   02:08 AM Eastern

 

ADVISORIES

FORECASTS

FORECASTS

OBSERVATIONS

USER TOOLS

ABOUT US